ADDS METAR Data INFO
IDs: Format: Raw Decoded Include TAF

Data at: 1958 UTC 15 Dec 2017

PABL 151956Z AUTO 00000KT 10SM CLR M21/M23 A2950 RMK AO2 SLP992 T12061228 FZRANO
PABL 151856Z AUTO 00000KT 10SM CLR M19/M21 A2951 RMK AO2 SLP994 T11891211 FZRANO
PABL 151756Z AUTO 00000KT 10SM CLR M17/M19 A2953 RMK AO2 SLP001 60000 T11671189 11133 21172 58020 FZRANO
PABL 151656Z AUTO 11003KT 10SM BKN036 M14/M16 A2956 RMK AO2 SLP013 T11441161 FZRANO
PABL 151556Z AUTO 00000KT 10SM OVC038 M13/M15 A2958 RMK AO2 SNE17 SLP018 P0000 T11331150 FZRANO
PABL 151456Z AUTO 16006KT 9SM -SN OVC038 M14/M16 A2958 RMK AO2 SNB20 SLP021 P0000 60000 T11441161 56014 FZRANO
PABL 151404Z AUTO 10003KT 7SM SCT015 OVC040 M15/M17 A2959 RMK AO2 FZRANO
PABL 151356Z AUTO 12003KT 6SM BR SCT015 BKN026 OVC040 M15/M17 A2959 RMK AO2 SNB06E16 SLP023 P0000 T11501167 FZRANO
PABL 151328Z AUTO 00000KT 6SM BR BKN028 OVC039 M14/M16 A2960 RMK AO2 SNB06E16 P0000 FZRANO
PABL 151256Z AUTO 00000KT 7SM FEW002 OVC035 M15/M17 A2961 RMK AO2 SLP029 T11501167 FZRANO
PABL 151221Z AUTO 00000KT 1 1/4SM BR OVC004 M17/M18 A2962 RMK AO2 VIS 3/4V4 FZRANO
PABL 151216Z AUTO 08003KT 3/4SM BR OVC004 M17/M18 A2962 RMK AO2 FZRANO
PABL 151210Z AUTO 00000KT 1 3/4SM BR OVC004 M17/M19 A2962 RMK AO2 FZRANO
PABL 151141Z AUTO 00000KT 8SM OVC004 M17/M19 A2964 RMK AO2 CIG 001V005 FZRANO
PABL 151056Z AUTO 00000KT 3SM BR OVC002 M17/M19 A2964 RMK AO2 SNE05B40E56 SLP040 P0000 T11721189 FZRANO
PABL 151047Z AUTO 14004KT 1 3/4SM -SN BR BKN002 M17/M19 A2964 RMK AO2 SNE05B40 P0000 FZRANO
PABL 151036Z AUTO 15003KT 6SM BR BKN002 M17/M19 A2964 RMK AO2 SNE05 P0000 FZRANO
PABL 151025Z AUTO 14004KT 5SM BR SCT002 M17/M19 A2964 RMK AO2 SNE05 P0000 FZRANO
PABL 150956Z AUTO 16005KT 7SM -SN OVC002 M16/M18 A2964 RMK AO2 SNB0859E26B54 SLP041 P0000 T11611183 FZRANO
PABL 150943Z AUTO 00000KT 10SM OVC002 M16/M18 A2964 RMK AO2 SNB0859E26 P0000 FZRANO
PABL 150935Z AUTO 00000KT 2SM BR OVC002 M15/M17 A2964 RMK AO2 SNB0859E26 P0000 FZRANO
PABL 150930Z AUTO 13004KT 1SM BR OVC002 M15/M17 A2964 RMK AO2 SNB0859E26 P0000 FZRANO
PABL 150920Z AUTO 09004KT 1/2SM -SN FZFG OVC002 M14/M16 A2964 RMK AO2 SNB0859 P0000 FZRANO
PABL 150910Z AUTO 09005KT 3/4SM -SN BR OVC002 M14/M16 A2964 RMK AO2 SNB0859 P0000 FZRANO
PABL 150907Z AUTO 09005KT 1 1/2SM -SN BR OVC002 M14/M16 A2964 RMK AO2 VIS 1/2V5 SNB0859 P0000 FZRANO
PABL 150807Z AUTO 17006KT 10SM BKN002 M15/M17 A2964 RMK AO2 FZRANO
PABL 150756Z AUTO 16003KT 10SM FEW002 SCT055 M14/M17 A2964 RMK AO2 SLP038 T11441167 FZRANO
PABL 150656Z AUTO 16004KT 10SM OVC055 M13/M15 A2964 RMK AO2 SLP038 T11331150 FZRANO
PABL 150556Z AUTO 19005KT 10SM OVC065 M14/M15 A2964 RMK AO2 SLP038 60000 T11391150 11094 21139 53007 FZRANO
PABL 150456Z AUTO 19004KT 10SM OVC037 M13/M14 A2963 RMK AO2 SLP035 T11281144 FZRANO
PABL 150356Z AUTO 15004KT 10SM OVC043 M12/M13 A2962 RMK AO2 SLP031 T11171128 FZRANO
PABL 150256Z AUTO 13009KT 10SM CLR M12/M13 A2961 RMK AO2 SLP031 60000 T11221133 53008 FZRANO
PABL 150156Z AUTO 11006KT 10SM CLR M12/M13 A2960 RMK AO2 SNB12E29 SLP027 P0000 T11171133 FZRANO
PABL 150056Z AUTO 13007KT 10SM CLR M12/M12 A2960 RMK AO2 SLP025 T11171122 FZRANO
PABL 142356Z AUTO 12006KT 10SM FEW028 M09/M11 A2959 RMK AO2 SLP022 T10941106 11028 21094 51016 FZRANO
PABL 142346Z AUTO 12007KT 10SM SCT024 M09/M11 A2959 RMK AO2 FZRANO
PABL 142314Z AUTO 14006KT 10SM BKN024 M08/M09 A2958 RMK AO2 FZRANO
PABL 142256Z AUTO 09003KT 10SM CLR M09/M10 A2958 RMK AO2 SLP020 T10891100 FZRANO
PABL 142156Z AUTO 14005KT 10SM CLR M08/M09 A2956 RMK AO2 SLP013 T10781089 FZRANO
PABL 142056Z AUTO 14006KT 10SM BKN100 M07/M08 A2954 RMK AO2 SLP006 T10671083 51015 FZRANO
PABL 141956Z AUTO 31004KT 10SM CLR M05/M07 A2953 RMK AO2 SLP002 T10501067 FZRANO
PABL 141922Z AUTO 00000KT 10SM SCT025 BKN100 M04/M06 A2953 RMK AO2 FZRANO
PABL 141907Z AUTO 00000KT 10SM BKN023 OVC100 M03/M05 A2952 RMK AO2 FZRANO
PABL 141856Z AUTO 12006KT 10SM SCT021 OVC100 M03/M05 A2952 RMK AO2 SLP997 T10281050 FZRANO
PABL 141846Z AUTO 13007KT 10SM SCT023 SCT046 OVC100 M03/M04 A2951 RMK AO2 FZRANO
PABL 141830Z AUTO 12010KT 10SM BKN023 BKN046 OVC095 M03/M04 A2951 RMK AO2 FZRANO
PABL 141820Z AUTO 13010KT 10SM SCT015 BKN047 OVC095 M03/M04 A2951 RMK AO2 FZRANO
PABL 141756Z AUTO 13009KT 10SM OVC015 M03/M04 A2950 RMK AO2 SNE06 SLP992 P0000 60000 T10281039 10011 21028 51012 FZRANO
PABL 141656Z AUTO 14013KT 9SM -SN OVC017 M02/M03 A2949 RMK AO2 SLP990 P0000 T10221033 FZRANO
PABL 141611Z AUTO 14011KT 9SM -SN SCT017 BKN023 OVC030 M01/M03 A2948 RMK AO2 P0000 FZRANO
PABL 141604Z AUTO 14012KT 9SM -SN FEW017 SCT023 OVC030 M01/M03 A2948 RMK AO2 P0000 FZRANO
PABL 141556Z AUTO 14013KT 7SM -SN BKN023 OVC036 M01/M03 A2948 RMK AO2 SNB38 SLP984 P0000 T10111028 FZRANO
PABL 141456Z AUTO 13009G15KT 10SM SCT046 OVC060 01/M01 A2947 RMK AO2 SLP980 60000 T00111011 53014 FZRANO
PABL 141256Z AUTO 14008KT 10SM OVC030 01/M01 A2943 RMK AO2 SNE10 SLP970 P0000 T00061006 FZRANO
PABL 141226Z AUTO 14009KT 10SM FEW027 OVC033 00/M01 A2943 RMK AO2 SNE10 P0000 FZRANO
PABL 141156Z AUTO 14009KT 9SM -SN BKN017 OVC027 00/M01 A2942 RMK AO2 SLP966 P0000 60001 70002 T00001006 10000 21011 51006 FZRANO
PABL 141052Z AUTO 15009KT 10SM -SN BKN024 OVC032 M01/M02 A2942 RMK AO2 UPE25B45E50SNB25E45B50 P0000 FZRANO
PABL 141017Z AUTO 15007KT 10SM UP SCT010 OVC032 M01/M02 A2941 RMK AO2 P0000 FZRANO
PABL 140956Z AUTO 15008KT 9SM UP OVC010 M01/M02 A2941 RMK AO2 UPB20SNE20 SLP960 P0000 T10111017 FZRANO
PABL 140940Z AUTO 14007KT 10SM UP BKN010 OVC015 M01/M02 A2940 RMK AO2 UPB20SNE20 P0000 FZRANO
PABL 140917Z AUTO 14008KT 6SM -SN BR FEW005 SCT014 OVC021 M01/M02 A2940 RMK AO2 P0000 FZRANO
PABL 140856Z AUTO 15007KT 5SM -SN BR OVC020 M01/M02 A2940 RMK AO2 SLP956 P0001 60001 T10111017 400281011 53007 FZRANO